createdAt,value
2023-04-15T00:00:10.519Z,2.30
2023-04-15T00:03:02.829Z,1.92
2023-04-15T00:05:32.904Z,1.92
2023-04-15T00:08:01.710Z,3.58
2023-04-15T00:10:29.945Z,5.05
2023-04-15T00:12:57.948Z,2.58
2023-04-15T00:15:27.712Z,1.55
2023-04-15T00:17:55.753Z,2.83
2023-04-15T00:20:25.273Z,1.63
2023-04-15T00:22:53.919Z,2.25
2023-04-15T00:25:22.524Z,1.83
2023-04-15T00:27:50.376Z,3.45
2023-04-15T00:30:18.855Z,2.60
2023-04-15T00:32:47.210Z,2.78
2023-04-15T00:35:15.221Z,5.00
2023-04-15T00:37:44.845Z,6.28
2023-04-15T00:40:14.765Z,2.25
2023-04-15T00:42:42.569Z,3.80
2023-04-15T00:45:11.280Z,2.97
2023-04-15T00:47:42.331Z,4.22
2023-04-15T00:50:11.431Z,3.25
2023-04-15T00:52:40.399Z,3.78
2023-04-15T00:55:09.389Z,2.33
2023-04-15T00:57:37.260Z,4.68
2023-04-15T01:00:08.328Z,5.28
2023-04-15T01:02:37.240Z,6.90
2023-04-15T01:05:05.785Z,3.13
2023-04-15T01:07:33.595Z,4.10
2023-04-15T01:10:02.558Z,5.80
2023-04-15T01:12:32.722Z,7.05
2023-04-15T01:15:02.641Z,5.22
2023-04-15T01:17:30.884Z,6.40
2023-04-15T01:20:00.338Z,11.73
2023-04-15T01:22:30.060Z,4.10
2023-04-15T01:25:06.507Z,6.85
2023-04-15T01:27:36.226Z,12.48
2023-04-15T01:30:05.651Z,5.95
2023-04-15T01:32:34.341Z,4.78
2023-04-15T01:35:03.301Z,5.45
2023-04-15T01:37:31.783Z,6.18
2023-04-15T01:40:00.095Z,11.70
2023-04-15T01:42:28.257Z,10.00
2023-04-15T01:44:56.727Z,5.68
2023-04-15T01:47:25.850Z,6.72
2023-04-15T01:49:55.536Z,12.23
2023-04-15T01:52:23.933Z,8.32
2023-04-15T01:54:52.407Z,0.20
2023-04-15T01:57:20.684Z,2.42
2023-04-15T01:59:49.068Z,4.22
2023-04-15T02:02:17.771Z,5.82
2023-04-15T02:04:46.333Z,7.00
2023-04-15T02:07:14.807Z,10.73
2023-04-15T02:09:43.901Z,5.07
2023-04-15T02:12:12.516Z,11.23
2023-04-15T02:14:40.869Z,5.90
2023-04-15T02:17:08.944Z,4.95
2023-04-15T02:19:37.626Z,4.68
2023-04-15T02:22:05.807Z,6.03
2023-04-15T02:24:34.181Z,1.95
2023-04-15T02:27:04.298Z,4.07
2023-04-15T02:29:33.294Z,7.35
2023-04-15T02:32:02.150Z,6.35
2023-04-15T02:34:30.988Z,4.45
2023-04-15T02:36:59.465Z,0.93
2023-04-15T02:39:28.155Z,4.10
2023-04-15T02:41:57.146Z,2.38
2023-04-15T02:44:26.265Z,0.00
2023-04-15T02:46:59.715Z,3.47
2023-04-15T02:49:30.281Z,4.25
2023-04-15T02:51:58.651Z,0.45
2023-04-15T02:54:30.504Z,2.30
2023-04-15T02:56:58.753Z,1.75
2023-04-15T02:59:27.288Z,2.28
2023-04-15T03:01:56.972Z,7.03
2023-04-15T03:04:25.154Z,6.70
2023-04-15T03:06:53.073Z,1.02
2023-04-15T03:09:21.877Z,7.47
2023-04-15T03:11:51.203Z,4.97
2023-04-15T03:14:19.574Z,2.45
2023-04-15T03:16:50.933Z,10.60
2023-04-15T03:19:20.262Z,3.80
2023-04-15T03:21:48.100Z,5.45
2023-04-15T03:24:16.479Z,3.13
2023-04-15T03:26:45.996Z,3.63
2023-04-15T03:29:17.533Z,1.23
2023-04-15T03:31:46.004Z,3.67
2023-04-15T03:34:15.613Z,1.40
2023-04-15T03:36:43.374Z,0.22
2023-04-15T03:39:11.772Z,2.70
2023-04-15T03:41:39.747Z,0.65
2023-04-15T03:44:08.022Z,0.22
2023-04-15T03:46:36.040Z,2.38
2023-04-15T03:49:04.676Z,5.15
2023-04-15T03:51:32.741Z,2.40
2023-04-15T03:54:01.018Z,1.60
2023-04-15T03:56:28.998Z,0.65
2023-04-15T03:58:57.393Z,1.60
2023-04-15T04:01:25.964Z,1.02
2023-04-15T04:03:54.540Z,2.55
2023-04-15T04:06:22.594Z,0.43
2023-04-15T04:08:51.207Z,0.22
2023-04-15T04:11:19.068Z,0.57
2023-04-15T04:13:48.297Z,2.63
2023-04-15T04:16:16.433Z,2.25
2023-04-15T04:18:44.593Z,2.08
2023-04-15T04:21:12.596Z,1.98
2023-04-15T04:23:40.964Z,0.70
2023-04-15T04:26:08.917Z,6.53
2023-04-15T04:28:37.518Z,1.13
2023-04-15T04:31:05.497Z,0.60
2023-04-15T04:33:34.257Z,3.88
2023-04-15T04:36:03.062Z,2.35
2023-04-15T04:38:31.447Z,0.73
2023-04-15T04:40:59.435Z,2.65
2023-04-15T04:43:27.983Z,2.35
2023-04-15T04:45:56.201Z,2.22
2023-04-15T04:48:24.338Z,1.15
2023-04-15T04:50:53.419Z,3.15
2023-04-15T04:53:21.926Z,4.70
2023-04-15T04:55:49.668Z,4.95
2023-04-15T04:58:18.094Z,2.03
2023-04-15T05:00:46.545Z,1.88
2023-04-15T05:03:15.680Z,0.75
2023-04-15T05:05:44.342Z,4.05
2023-04-15T05:08:13.021Z,1.40
2023-04-15T05:10:41.011Z,2.95
2023-04-15T05:13:09.477Z,1.67
2023-04-15T05:15:37.749Z,2.20
2023-04-15T05:18:06.657Z,0.70
2023-04-15T05:20:36.188Z,0.60
2023-04-15T05:23:04.327Z,1.15
2023-04-15T05:25:32.994Z,1.75
2023-04-15T05:28:01.401Z,2.17
2023-04-15T05:30:29.710Z,1.00
2023-04-15T05:32:58.364Z,1.38
2023-04-15T05:35:26.615Z,0.13
2023-04-15T05:37:55.094Z,0.15
2023-04-15T05:40:23.481Z,0.38
2023-04-15T05:42:52.289Z,0.30
2023-04-15T05:45:20.562Z,0.08
2023-04-15T05:47:51.176Z,0.20
2023-04-15T05:50:19.054Z,0.15
2023-04-15T05:52:47.669Z,1.38
2023-04-15T05:55:16.638Z,0.28
2023-04-15T05:57:44.926Z,0.88
2023-04-15T06:00:13.587Z,0.20
2023-04-15T06:02:44.004Z,0.38
2023-04-15T06:05:12.215Z,0.45
2023-04-15T06:07:41.205Z,0.20
2023-04-15T06:10:09.643Z,0.00
2023-04-15T06:12:37.881Z,0.00
2023-04-15T06:15:07.383Z,0.22
2023-04-15T06:17:35.785Z,0.30
2023-04-15T06:20:05.468Z,0.30
2023-04-15T06:22:33.957Z,0.25
2023-04-15T06:25:01.999Z,0.20
2023-04-15T06:27:30.264Z,0.77
2023-04-15T06:29:57.899Z,0.70
2023-04-15T06:32:26.529Z,0.90
2023-04-15T06:34:56.025Z,0.63
2023-04-15T06:37:24.181Z,0.10
2023-04-15T06:39:51.997Z,0.35
2023-04-15T06:42:20.677Z,0.00
2023-04-15T06:44:49.484Z,0.55
2023-04-15T06:47:18.166Z,0.28
2023-04-15T06:49:46.429Z,1.13
2023-04-15T06:52:14.907Z,0.65
2023-04-15T06:54:43.993Z,0.65
2023-04-15T06:57:12.884Z,0.00
2023-04-15T06:59:40.940Z,0.35
2023-04-15T07:02:12.949Z,0.32
2023-04-15T07:04:41.283Z,0.63
2023-04-15T07:07:10.408Z,0.40
2023-04-15T07:09:39.087Z,0.20
2023-04-15T07:12:07.260Z,0.10
2023-04-15T07:14:35.027Z,0.28
2023-04-15T07:17:03.697Z,0.10
2023-04-15T07:19:32.298Z,0.65
2023-04-15T07:22:01.485Z,0.57
2023-04-15T07:24:29.764Z,0.40
2023-04-15T07:27:01.000Z,0.03
2023-04-15T07:29:29.560Z,1.00
2023-04-15T07:31:58.268Z,0.00
2023-04-15T07:34:26.236Z,0.20
2023-04-15T07:36:54.432Z,1.10
2023-04-15T07:39:22.914Z,0.03
2023-04-15T07:41:51.606Z,0.00
2023-04-15T07:44:19.677Z,0.30
2023-04-15T07:46:48.565Z,0.38
2023-04-15T07:49:16.944Z,0.17
2023-04-15T07:51:46.460Z,0.85
2023-04-15T07:54:15.420Z,0.35
2023-04-15T07:56:43.922Z,0.45
2023-04-15T07:59:11.906Z,0.47
2023-04-15T08:01:40.284Z,0.38
2023-04-15T08:04:08.651Z,0.22
2023-04-15T08:06:40.220Z,0.32
2023-04-15T08:11:36.961Z,0.95
2023-04-15T08:14:04.945Z,0.98
2023-04-15T08:16:33.733Z,0.45
2023-04-15T08:19:02.059Z,0.93
2023-04-15T08:21:31.370Z,0.65
2023-04-15T08:23:59.253Z,1.50
2023-04-15T08:26:27.847Z,1.15
2023-04-15T08:28:56.063Z,1.25
2023-04-15T08:31:24.345Z,1.55
2023-04-15T08:33:52.894Z,0.70
2023-04-15T08:36:21.169Z,0.40
2023-04-15T08:38:50.872Z,0.68
2023-04-15T08:41:26.949Z,1.80
2023-04-15T08:43:59.007Z,1.52
2023-04-15T08:46:28.312Z,1.00
2023-04-15T08:48:58.321Z,0.70
2023-04-15T08:51:27.761Z,1.52
2023-04-15T08:53:56.104Z,1.55
2023-04-15T08:56:29.142Z,0.25
2023-04-15T08:58:58.289Z,0.93
2023-04-15T09:01:27.554Z,0.98
2023-04-15T09:03:56.651Z,0.20
2023-04-15T09:06:26.087Z,1.45
2023-04-15T09:08:54.296Z,2.42
2023-04-15T09:11:23.172Z,0.80
2023-04-15T09:13:51.946Z,0.85
2023-04-15T09:16:20.814Z,0.75
2023-04-15T09:18:48.929Z,1.20
2023-04-15T09:21:18.200Z,1.77
2023-04-15T09:24:01.236Z,0.98
2023-04-15T09:26:33.720Z,0.90
2023-04-15T09:29:19.889Z,1.42
2023-04-15T09:31:48.697Z,1.85
2023-04-15T09:34:16.854Z,0.73
2023-04-15T09:36:50.409Z,1.27
2023-04-15T09:39:19.470Z,0.70
2023-04-15T09:41:48.069Z,0.98
2023-04-15T09:44:28.624Z,0.50
2023-04-15T09:46:56.898Z,0.63
2023-04-15T09:49:25.017Z,0.88
2023-04-15T09:52:05.624Z,0.57
2023-04-15T09:54:39.274Z,1.08
2023-04-15T09:57:11.135Z,0.60
2023-04-15T09:59:39.159Z,1.55
2023-04-15T10:02:08.001Z,0.80
2023-04-15T10:04:42.495Z,0.70
2023-04-15T10:07:13.218Z,1.85
2023-04-15T10:09:41.814Z,1.42
2023-04-15T10:12:10.989Z,0.47
2023-04-15T10:14:41.121Z,0.82
2023-04-15T10:17:15.449Z,1.20
2023-04-15T10:19:44.244Z,0.40
2023-04-15T10:22:13.035Z,1.13
2023-04-15T10:24:41.507Z,0.95
2023-04-15T10:27:10.404Z,1.15
2023-04-15T10:29:39.304Z,0.65
2023-04-15T10:32:08.514Z,2.13
2023-04-15T10:34:37.596Z,1.65
2023-04-15T10:37:06.284Z,0.00
2023-04-15T10:39:36.810Z,0.65
2023-04-15T10:42:10.407Z,0.52
2023-04-15T10:44:40.220Z,0.40
2023-04-15T10:47:16.000Z,0.20
2023-04-15T10:49:46.575Z,0.70
2023-04-15T10:52:17.844Z,0.38
2023-04-15T10:57:41.456Z,0.22
2023-04-15T11:00:09.823Z,0.05
2023-04-15T11:02:53.322Z,0.00
2023-04-15T11:05:23.245Z,0.32
2023-04-15T11:07:54.530Z,0.30
2023-04-15T11:10:34.673Z,0.60
2023-04-15T11:13:07.021Z,0.20
2023-04-15T11:15:39.703Z,0.25
2023-04-15T11:18:15.579Z,0.43
2023-04-15T11:20:45.994Z,0.32
2023-04-15T11:23:35.094Z,0.30
2023-04-15T11:26:07.241Z,0.17
2023-04-15T11:28:36.817Z,0.17
2023-04-15T11:31:18.330Z,0.30
2023-04-15T11:34:03.508Z,0.32
2023-04-15T11:36:35.780Z,0.38
2023-04-15T11:39:07.746Z,0.40
2023-04-15T11:41:36.942Z,0.43
2023-04-15T11:44:18.287Z,0.22
2023-04-15T11:46:46.315Z,0.20
2023-04-15T11:49:31.668Z,0.05
2023-04-15T11:52:00.539Z,0.25
2023-04-15T11:54:28.703Z,0.08
2023-04-15T11:56:57.113Z,0.10
2023-04-15T11:59:28.154Z,0.05
2023-04-15T12:02:13.651Z,0.10
2023-04-15T12:04:42.666Z,0.20
2023-04-15T12:07:12.945Z,0.55
2023-04-15T12:09:41.645Z,0.03
2023-04-15T12:12:12.177Z,0.22
2023-04-15T12:14:42.703Z,0.30
2023-04-15T12:17:11.795Z,0.20
2023-04-15T12:19:46.020Z,0.28
2023-04-15T12:22:16.323Z,0.35
2023-04-15T12:24:48.399Z,0.22
2023-04-15T12:27:18.634Z,0.00
2023-04-15T12:29:46.908Z,0.10
2023-04-15T12:32:17.398Z,0.13
2023-04-15T12:37:18.709Z,0.10
2023-04-15T12:39:51.722Z,0.55
2023-04-15T12:42:21.017Z,0.22
2023-04-15T12:44:49.176Z,0.25
2023-04-15T12:47:17.547Z,0.40
2023-04-15T12:49:46.237Z,0.30
2023-04-15T12:52:15.398Z,0.47
2023-04-15T12:54:43.493Z,0.00
2023-04-15T12:57:11.981Z,0.82
2023-04-15T12:59:40.080Z,0.50
2023-04-15T13:02:09.346Z,0.73
2023-04-15T13:04:37.542Z,0.35
2023-04-15T13:07:06.723Z,1.75
2023-04-15T13:09:34.701Z,0.45
2023-04-15T13:12:03.417Z,1.85
2023-04-15T13:14:32.208Z,0.38
2023-04-15T13:17:01.046Z,1.45
2023-04-15T13:19:29.046Z,1.15
2023-04-15T13:21:57.639Z,0.90
2023-04-15T13:24:26.196Z,0.43
2023-04-15T13:26:54.981Z,0.60
2023-04-15T13:29:23.162Z,0.70
2023-04-15T13:31:51.857Z,0.43
2023-04-15T13:34:19.831Z,0.90
2023-04-15T13:36:48.698Z,0.40
2023-04-15T13:39:16.483Z,0.40
2023-04-15T13:41:44.736Z,0.88
2023-04-15T13:44:13.143Z,0.00
2023-04-15T13:46:45.179Z,0.45
2023-04-15T13:49:13.683Z,1.25
2023-04-15T13:51:43.098Z,0.10
2023-04-15T13:54:11.376Z,1.00
2023-04-15T13:56:39.957Z,0.25
2023-04-15T13:59:08.979Z,0.22
2023-04-15T14:01:38.715Z,0.77
2023-04-15T14:04:07.267Z,0.05
2023-04-15T14:06:36.130Z,0.80
2023-04-15T14:09:04.680Z,0.52
2023-04-15T14:11:35.734Z,0.70
2023-04-15T14:14:03.806Z,0.32
2023-04-15T14:16:34.136Z,0.65
2023-04-15T14:19:03.135Z,1.50
2023-04-15T14:21:32.896Z,0.10
2023-04-15T14:24:04.764Z,0.55
2023-04-15T14:26:33.489Z,0.38
2023-04-15T14:29:01.783Z,0.30
2023-04-15T14:31:30.270Z,0.50
2023-04-15T14:33:58.003Z,0.05
2023-04-15T14:36:27.560Z,0.10
2023-04-15T14:38:56.377Z,0.13
2023-04-15T14:41:24.593Z,0.68
2023-04-15T14:43:52.662Z,0.85
2023-04-15T14:46:21.151Z,0.52
2023-04-15T14:48:49.894Z,1.33
2023-04-15T14:51:19.206Z,1.33
2023-04-15T14:53:47.365Z,0.95
2023-04-15T14:56:15.353Z,2.45
2023-04-15T14:58:43.232Z,0.52
2023-04-15T15:01:11.430Z,2.88
2023-04-15T15:03:40.092Z,0.68
2023-04-15T15:06:11.465Z,0.50
2023-04-15T15:08:39.448Z,0.55
2023-04-15T15:11:08.571Z,0.68
2023-04-15T15:13:37.625Z,0.88
2023-04-15T15:16:07.553Z,1.20
2023-04-15T15:18:36.698Z,0.30
2023-04-15T15:21:05.374Z,0.52
2023-04-15T15:23:33.495Z,1.20
2023-04-15T15:26:01.872Z,0.80
2023-04-15T15:28:30.188Z,2.17
2023-04-15T15:30:58.794Z,0.75
2023-04-15T15:33:27.628Z,0.70
2023-04-15T15:35:58.945Z,1.05
2023-04-15T15:38:26.817Z,0.52
2023-04-15T15:40:55.960Z,1.00
2023-04-15T15:43:23.919Z,0.15
2023-04-15T15:45:55.740Z,1.45
2023-04-15T15:48:24.850Z,1.30
2023-04-15T15:50:53.915Z,0.52
2023-04-15T15:53:24.466Z,0.20
2023-04-15T15:55:53.982Z,0.88
2023-04-15T15:58:22.040Z,0.85
2023-04-15T16:00:50.861Z,0.55
2023-04-15T16:03:18.929Z,1.73
2023-04-15T16:05:48.219Z,0.45
2023-04-15T16:08:17.084Z,3.58
2023-04-15T16:10:46.325Z,4.63
2023-04-15T16:13:15.098Z,1.27
2023-04-15T16:15:43.112Z,1.70
2023-04-15T16:18:10.905Z,1.27
2023-04-15T16:20:39.727Z,1.33
2023-04-15T16:23:13.858Z,0.93
2023-04-15T16:25:43.750Z,0.40
2023-04-15T16:28:25.115Z,0.60
2023-04-15T16:30:56.590Z,1.08
2023-04-15T16:33:24.632Z,1.15
2023-04-15T16:35:52.844Z,1.48
2023-04-15T16:38:21.268Z,0.80
2023-04-15T16:40:49.582Z,1.65
2023-04-15T16:43:17.760Z,1.00
2023-04-15T16:45:51.407Z,0.40
2023-04-15T16:48:21.491Z,0.73
2023-04-15T16:50:51.667Z,2.22
2023-04-15T16:53:22.322Z,6.45
2023-04-15T16:55:50.885Z,2.38
2023-04-15T16:58:19.525Z,2.15
2023-04-15T17:00:48.895Z,1.38
2023-04-15T17:03:17.337Z,1.13
2023-04-15T17:05:46.666Z,0.95
2023-04-15T17:08:14.692Z,1.08
2023-04-15T17:10:43.227Z,1.85
2023-04-15T17:13:11.007Z,1.75
2023-04-15T17:15:39.979Z,1.02
2023-04-15T17:18:09.308Z,0.45
2023-04-15T17:20:39.406Z,0.80
2023-04-15T17:23:10.146Z,0.82
2023-04-15T17:25:40.583Z,0.95
2023-04-15T17:28:09.353Z,0.08
2023-04-15T17:30:38.688Z,2.30
2023-04-15T17:33:54.179Z,0.70
2023-04-15T17:36:02.018Z,1.77
2023-04-15T17:38:31.818Z,2.50
2023-04-15T17:41:01.846Z,0.57
2023-04-15T17:43:32.446Z,1.00
2023-04-15T17:46:03.069Z,2.35
2023-04-15T17:48:31.593Z,3.53
2023-04-15T17:51:02.204Z,1.63
2023-04-15T17:53:30.870Z,2.85
2023-04-15T17:56:00.261Z,2.05
2023-04-15T17:58:29.296Z,3.25
2023-04-15T18:00:59.762Z,1.77
2023-04-15T18:03:28.853Z,2.50
2023-04-15T18:05:59.117Z,3.53
2023-04-15T18:08:27.774Z,3.55
2023-04-15T18:10:57.477Z,2.75
2023-04-15T18:13:26.259Z,1.13
2023-04-15T18:15:56.556Z,2.63
2023-04-15T18:18:25.182Z,2.33
2023-04-15T18:20:55.623Z,3.00
2023-04-15T18:23:25.179Z,1.13
2023-04-15T18:25:54.450Z,0.20
2023-04-15T18:28:23.138Z,3.40
2023-04-15T18:30:57.473Z,0.65
2023-04-15T18:33:27.411Z,0.93
2023-04-15T18:36:03.506Z,0.57
2023-04-15T18:38:32.599Z,1.17
2023-04-15T18:41:04.818Z,0.77
2023-04-15T18:43:35.926Z,0.00
2023-04-15T18:46:10.271Z,0.17
2023-04-15T18:48:40.148Z,1.83
2023-04-15T18:51:09.462Z,0.20
2023-04-15T18:53:39.360Z,1.95
2023-04-15T18:56:09.021Z,0.28
2023-04-15T18:59:08.990Z,1.00
2023-04-15T19:01:27.380Z,0.43
2023-04-15T19:03:56.209Z,1.40
2023-04-15T19:06:25.447Z,0.93
2023-04-15T19:08:54.434Z,0.73
2023-04-15T19:11:26.681Z,0.73
2023-04-15T19:13:55.932Z,1.67
2023-04-15T19:16:25.080Z,0.75
2023-04-15T19:18:54.063Z,1.23
2023-04-15T19:21:23.878Z,1.52
2023-04-15T19:23:52.029Z,1.67
2023-04-15T19:26:21.959Z,1.90
2023-04-15T19:28:51.334Z,2.25
2023-04-15T19:31:24.864Z,2.03
2023-04-15T19:33:54.946Z,1.58
2023-04-15T19:36:26.712Z,3.33
2023-04-15T19:43:56.471Z,3.85
2023-04-15T19:46:30.821Z,1.48
2023-04-15T19:49:03.180Z,2.47
2023-04-15T19:51:33.910Z,2.22
2023-04-15T19:54:03.408Z,2.88
2023-04-15T19:56:34.369Z,2.28
2023-04-15T19:59:04.096Z,0.90
2023-04-15T20:01:35.237Z,1.05
2023-04-15T20:04:04.938Z,2.90
2023-04-15T20:06:37.172Z,2.30
2023-04-15T20:09:06.787Z,3.40
2023-04-15T20:12:46.093Z,2.30
2023-04-15T20:14:28.820Z,2.15
2023-04-15T20:16:59.462Z,2.45
2023-04-15T20:19:28.658Z,2.53
2023-04-15T20:21:58.816Z,1.98
2023-04-15T20:24:27.958Z,1.45
2023-04-15T20:26:58.412Z,1.05
2023-04-15T20:29:28.417Z,3.03
2023-04-15T20:32:05.692Z,3.33
2023-04-15T20:34:36.019Z,2.33
2023-04-15T20:37:05.663Z,2.05
2023-04-15T20:39:37.107Z,2.00
2023-04-15T20:42:10.924Z,2.13
2023-04-15T20:44:40.829Z,1.67
2023-04-15T20:47:09.270Z,2.38
2023-04-15T20:49:42.466Z,1.10
2023-04-15T20:52:12.103Z,1.27
2023-04-15T20:54:41.741Z,0.30
2023-04-15T20:57:10.296Z,1.83
2023-04-15T20:59:40.705Z,0.30
2023-04-15T21:02:09.949Z,2.45
2023-04-15T21:04:39.225Z,2.13
2023-04-15T21:07:08.349Z,2.72
2023-04-15T21:09:36.677Z,1.65
2023-04-15T21:12:08.153Z,0.45
2023-04-15T21:14:37.445Z,0.57
2023-04-15T21:17:11.047Z,1.25
2023-04-15T21:19:40.960Z,2.55
2023-04-15T21:22:09.683Z,0.57
2023-04-15T21:24:38.352Z,0.90
2023-04-15T21:27:07.240Z,0.90
2023-04-15T21:29:35.608Z,1.00
2023-04-15T21:32:05.041Z,0.68
2023-04-15T21:34:33.597Z,3.60
2023-04-15T21:37:04.859Z,1.23
2023-04-15T21:39:33.114Z,0.40
2023-04-15T21:42:01.743Z,1.75
2023-04-15T21:44:29.659Z,1.17
2023-04-15T21:46:58.501Z,0.30
2023-04-15T21:49:26.580Z,0.82
2023-04-15T21:51:54.915Z,1.73
2023-04-15T21:54:22.869Z,2.92
2023-04-15T21:56:51.275Z,0.95
2023-04-15T21:59:19.122Z,0.15
2023-04-15T22:01:47.889Z,1.70
2023-04-15T22:04:16.448Z,0.30
2023-04-15T22:06:44.659Z,1.17
2023-04-15T22:09:14.128Z,0.47
2023-04-15T22:11:43.384Z,0.45
2023-04-15T22:14:11.305Z,0.73
2023-04-15T22:16:39.589Z,1.20
2023-04-15T22:19:08.053Z,1.20
2023-04-15T22:21:37.278Z,0.63
2023-04-15T22:24:32.171Z,1.23
2023-04-15T22:26:54.458Z,0.50
2023-04-15T22:29:22.862Z,0.75
2023-04-15T22:31:52.114Z,0.60
2023-04-15T22:34:21.856Z,0.63
2023-04-15T22:36:52.471Z,0.65
2023-04-15T22:39:21.373Z,1.17
2023-04-15T22:41:50.434Z,1.85
2023-04-15T22:44:18.843Z,1.70
2023-04-15T22:46:47.228Z,0.17
2023-04-15T22:49:15.089Z,1.13
2023-04-15T22:51:44.691Z,0.47
2023-04-15T22:54:12.662Z,2.33
2023-04-15T22:56:41.426Z,1.70
2023-04-15T22:59:09.522Z,1.25
2023-04-15T23:01:38.567Z,0.63
2023-04-15T23:04:10.413Z,0.57
2023-04-15T23:06:52.684Z,0.47
2023-04-15T23:09:21.363Z,1.40
2023-04-15T23:11:50.046Z,1.23
2023-04-15T23:14:19.449Z,0.32
2023-04-15T23:16:47.882Z,1.38
2023-04-15T23:19:16.218Z,2.00
2023-04-15T23:21:44.603Z,0.90
2023-04-15T23:24:13.086Z,0.52
2023-04-15T23:26:42.212Z,1.30
2023-04-15T23:29:11.034Z,0.40
2023-04-15T23:31:41.907Z,1.10
2023-04-15T23:34:10.814Z,2.42
2023-04-15T23:36:39.386Z,0.40
2023-04-15T23:39:07.812Z,1.15
2023-04-15T23:41:37.182Z,1.88
2023-04-15T23:44:05.232Z,4.00
2023-04-15T23:46:33.683Z,1.08
2023-04-15T23:49:03.619Z,0.88
2023-04-15T23:51:32.127Z,0.85
2023-04-15T23:54:00.414Z,1.88
2023-04-15T23:56:29.288Z,0.55
2023-04-15T23:58:57.176Z,1.08
